PWSweather.com
Personal Weather Stations
Station Observations
MACKBIG
Historic Main Street, Unionville, ON L3R6A5

Historic Main StreetUnionville, ON L3R6A5

Lat: 43.875506, Lon: -79.312903

Elevation: 590

Station Type: Davis VP2 + 6163

http://www.mackweather.com

Latest ConditionsUpdated 8:30:09 PM EDT Wednesday, Oct 22, 2014
Currently Today's Max Today's Min Today's Average
Temperature 48.7°F9.3°C 56.9°F13.8°C 38.2°F3.4°C 46.4°F8.0°C
Dew Point 42.1°F5.6°C 44.9°F7.2°C 34.5°F1.4°C 39.2°F4.0°C
Winds Calm Calm 7.0 mph N11.3 kmh N - 2.5 mph 4.0 kmh
Wind Gusts 3.0 mph4.8 kmh 15.0 mph24.1 kmh - -
Humidity 78% 87% 63% 77%
Pressure 30.22 in1023.4 mb 30.26 in1024.7 mb 30.14 in1020.7 mb -
Hour Temp Dew Point Humidity Winds Wind Gusts Pressure Precip Precip Rate Daily Precip Total
08:30 PM 48.7°F9.3°C 42.1°F5.6°C 78% Calm Calm 3.0 mph4.8 kmh 30.22 in1023.4 mb 0.00 in0.0 mm 0.00 in/hr0.0 mm/hr 0.00 in0.0 mm
08:20 PM 48.7°F9.3°C 42.1°F5.6°C 78% 3.0 mph N4.8 kmh N 6.0 mph9.7 kmh 30.21 in1023.0 mb 0.00 in0.0 mm 0.00 in/hr0.0 mm/hr 0.00 in0.0 mm
08:10 PM 48.8°F9.3°C 41.9°F5.5°C 77% 2.0 mph NNW3.2 kmh NNW 5.0 mph8.0 kmh 30.20 in1022.7 mb 0.00 in0.0 mm 0.00 in/hr0.0 mm/hr 0.00 in0.0 mm
08:00 PM 49.0°F9.4°C 41.8°F5.4°C 76% Calm Calm 3.0 mph4.8 kmh 30.20 in1022.7 mb 0.00 in0.0 mm 0.00 in/hr0.0 mm/hr 0.00 in0.0 mm
07:50 PM 49.2°F9.6°C 41.6°F5.3°C 75% 3.0 mph NW4.8 kmh NW 9.0 mph14.5 kmh 30.20 in1022.7 mb 0.00 in0.0 mm 0.00 in/hr0.0 mm/hr 0.00 in0.0 mm
07:40 PM 49.6°F9.8°C 42.0°F5.6°C 75% 7.0 mph NW11.3 kmh NW 9.0 mph14.5 kmh 30.20 in1022.7 mb 0.00 in0.0 mm 0.00 in/hr0.0 mm/hr 0.00 in0.0 mm
07:30 PM 49.9°F9.9°C 41.9°F5.5°C 74% 3.0 mph NW4.8 kmh NW 9.0 mph14.5 kmh 30.20 in1022.7 mb 0.00 in0.0 mm 0.00 in/hr0.0 mm/hr 0.00 in0.0 mm
07:20 PM 50.2°F10.1°C 41.9°F5.5°C 73% 1.0 mph NNW1.6 kmh NNW 5.0 mph8.0 kmh 30.20 in1022.7 mb 0.00 in0.0 mm 0.00 in/hr0.0 mm/hr 0.00 in0.0 mm
07:10 PM 50.7°F10.4°C 42.0°F5.6°C 72% 2.0 mph NNW3.2 kmh NNW 7.0 mph11.3 kmh 30.20 in1022.7 mb 0.00 in0.0 mm 0.00 in/hr0.0 mm/hr 0.00 in0.0 mm
07:00 PM 51.2°F10.7°C 41.8°F5.4°C 70% 3.0 mph NW4.8 kmh NW 9.0 mph14.5 kmh 30.20 in1022.7 mb 0.00 in0.0 mm 0.00 in/hr0.0 mm/hr 0.00 in0.0 mm
06:50 PM 51.7°F10.9°C 41.9°F5.5°C 69% 5.0 mph NW8.0 kmh NW 7.0 mph11.3 kmh 30.20 in1022.7 mb 0.00 in0.0 mm 0.00 in/hr0.0 mm/hr 0.00 in0.0 mm
06:40 PM 52.2°F11.2°C 42.0°F5.6°C 68% Calm Calm 6.0 mph9.7 kmh 30.20 in1022.7 mb 0.00 in0.0 mm 0.00 in/hr0.0 mm/hr 0.00 in0.0 mm
06:30 PM 52.7°F11.5°C 42.0°F5.6°C 67% Calm Calm -- 30.20 in1022.7 mb 0.00 in0.0 mm 0.00 in/hr0.0 mm/hr 0.00 in0.0 mm
06:20 PM 53.1°F11.7°C 42.0°F5.6°C 66% Calm Calm 3.0 mph4.8 kmh 30.20 in1022.7 mb 0.00 in0.0 mm 0.00 in/hr0.0 mm/hr 0.00 in0.0 mm
06:10 PM 53.5°F11.9°C 42.4°F5.8°C 66% Calm Calm 6.0 mph9.7 kmh 30.20 in1022.7 mb 0.00 in0.0 mm 0.00 in/hr0.0 mm/hr 0.00 in0.0 mm
06:00 PM 53.8°F12.1°C 42.3°F5.7°C 65% 1.0 mph NNW1.6 kmh NNW 5.0 mph8.0 kmh 30.20 in1022.7 mb 0.00 in0.0 mm 0.00 in/hr0.0 mm/hr 0.00 in0.0 mm
05:50 PM 54.1°F12.3°C 42.6°F5.9°C 65% 3.0 mph N4.8 kmh N 5.0 mph8.0 kmh 30.20 in1022.7 mb 0.00 in0.0 mm 0.00 in/hr0.0 mm/hr 0.00 in0.0 mm
05:40 PM 54.3°F12.4°C 42.8°F6.0°C 65% 2.0 mph N3.2 kmh N 7.0 mph11.3 kmh 30.20 in1022.7 mb 0.00 in0.0 mm 0.00 in/hr0.0 mm/hr 0.00 in0.0 mm
05:30 PM 54.7°F12.6°C 42.7°F5.9°C 64% 5.0 mph N8.0 kmh N 8.0 mph12.9 kmh 30.20 in1022.7 mb 0.00 in0.0 mm 0.00 in/hr0.0 mm/hr 0.00 in0.0 mm
05:20 PM 54.9°F12.7°C 42.9°F6.1°C 64% 1.0 mph NNW1.6 kmh NNW 7.0 mph11.3 kmh 30.20 in1022.7 mb 0.00 in0.0 mm 0.00 in/hr0.0 mm/hr 0.00 in0.0 mm
05:10 PM 55.2°F12.9°C 43.2°F6.2°C 64% 3.0 mph NNW4.8 kmh NNW 5.0 mph8.0 kmh 30.20 in1022.7 mb 0.00 in0.0 mm 0.00 in/hr0.0 mm/hr 0.00 in0.0 mm
05:00 PM 55.4°F13.0°C 43.4°F6.3°C 64% 3.0 mph NNW4.8 kmh NNW 9.0 mph14.5 kmh 30.20 in1022.7 mb 0.00 in0.0 mm 0.00 in/hr0.0 mm/hr 0.00 in0.0 mm
04:50 PM 55.7°F13.2°C 43.7°F6.5°C 64% 2.0 mph NW3.2 kmh NW 7.0 mph11.3 kmh 30.20 in1022.7 mb 0.00 in0.0 mm 0.00 in/hr0.0 mm/hr 0.00 in0.0 mm
04:40 PM 55.7°F13.2°C 44.1°F6.7°C 65% 2.0 mph NW3.2 kmh NW 6.0 mph9.7 kmh 30.20 in1022.7 mb 0.00 in0.0 mm 0.00 in/hr0.0 mm/hr 0.00 in0.0 mm
04:30 PM 55.8°F13.2°C 43.8°F6.6°C 64% 3.0 mph NE4.8 kmh NE 7.0 mph11.3 kmh 30.21 in1023.0 mb 0.00 in0.0 mm 0.00 in/hr0.0 mm/hr 0.00 in0.0 mm
04:20 PM 55.9°F13.3°C 43.9°F6.6°C 64% 6.0 mph NW9.7 kmh NW 9.0 mph14.5 kmh 30.20 in1022.7 mb 0.00 in0.0 mm 0.00 in/hr0.0 mm/hr 0.00 in0.0 mm
04:10 PM 56.0°F13.3°C 44.0°F6.7°C 64% 6.0 mph N9.7 kmh N 9.0 mph14.5 kmh 30.20 in1022.7 mb 0.00 in0.0 mm 0.00 in/hr0.0 mm/hr 0.00 in0.0 mm
04:00 PM 56.4°F13.6°C 44.4°F6.9°C 64% 2.0 mph NNE3.2 kmh NNE 3.0 mph4.8 kmh 30.20 in1022.7 mb 0.00 in0.0 mm 0.00 in/hr0.0 mm/hr 0.00 in0.0 mm
03:50 PM 56.4°F13.6°C 44.3°F6.8°C 64% 5.0 mph N8.0 kmh N 8.0 mph12.9 kmh 30.21 in1023.0 mb 0.00 in0.0 mm 0.00 in/hr0.0 mm/hr 0.00 in0.0 mm
03:40 PM 55.6°F13.1°C 44.0°F6.7°C 65% 7.0 mph NNE11.3 kmh NNE 9.0 mph14.5 kmh 30.21 in1023.0 mb 0.00 in0.0 mm 0.00 in/hr0.0 mm/hr 0.00 in0.0 mm
03:30 PM 55.6°F13.1°C 44.4°F6.9°C 66% 3.0 mph N4.8 kmh N 8.0 mph12.9 kmh 30.21 in1023.0 mb 0.00 in0.0 mm 0.00 in/hr0.0 mm/hr 0.00 in0.0 mm
03:20 PM 55.3°F12.9°C 44.1°F6.7°C 66% 5.0 mph N8.0 kmh N 9.0 mph14.5 kmh 30.21 in1023.0 mb 0.00 in0.0 mm 0.00 in/hr0.0 mm/hr 0.00 in0.0 mm
03:10 PM 55.2°F12.9°C 43.6°F6.4°C 65% 7.0 mph N11.3 kmh N 9.0 mph14.5 kmh 30.21 in1023.0 mb 0.00 in0.0 mm 0.00 in/hr0.0 mm/hr 0.00 in0.0 mm
03:00 PM 55.3°F12.9°C 43.7°F6.5°C 65% 5.0 mph NNE8.0 kmh NNE 5.0 mph8.0 kmh 30.20 in1022.7 mb 0.00 in0.0 mm 0.00 in/hr0.0 mm/hr 0.00 in0.0 mm
02:50 PM 56.1°F13.4°C 44.1°F6.7°C 64% 3.0 mph NNE4.8 kmh NNE 12.0 mph19.3 kmh 30.21 in1023.0 mb 0.00 in0.0 mm 0.00 in/hr0.0 mm/hr 0.00 in0.0 mm
02:40 PM 56.9°F13.8°C 44.8°F7.1°C 64% 3.0 mph N4.8 kmh N 7.0 mph11.3 kmh 30.21 in1023.0 mb 0.00 in0.0 mm 0.00 in/hr0.0 mm/hr 0.00 in0.0 mm
02:30 PM 56.1°F13.4°C 44.5°F6.9°C 65% 2.0 mph NNW3.2 kmh NNW 6.0 mph9.7 kmh 30.22 in1023.4 mb 0.00 in0.0 mm 0.00 in/hr0.0 mm/hr 0.00 in0.0 mm
02:20 PM 55.2°F12.9°C 44.4°F6.9°C 67% 6.0 mph NNE9.7 kmh NNE 13.0 mph20.9 kmh 30.22 in1023.4 mb 0.00 in0.0 mm 0.00 in/hr0.0 mm/hr 0.00 in0.0 mm
02:10 PM 55.0°F12.8°C 43.0°F6.1°C 64% 3.0 mph NE4.8 kmh NE 7.0 mph11.3 kmh 30.21 in1023.0 mb 0.00 in0.0 mm 0.00 in/hr0.0 mm/hr 0.00 in0.0 mm
02:00 PM 56.2°F13.4°C 43.8°F6.6°C 63% 6.0 mph N9.7 kmh N 7.0 mph11.3 kmh 30.21 in1023.0 mb 0.00 in0.0 mm 0.00 in/hr0.0 mm/hr 0.00 in0.0 mm
01:50 PM 56.1°F13.4°C 44.9°F7.2°C 66% 7.0 mph NE11.3 kmh NE 12.0 mph19.3 kmh 30.22 in1023.4 mb 0.00 in0.0 mm 0.00 in/hr0.0 mm/hr 0.00 in0.0 mm
01:40 PM 55.2°F12.9°C 44.0°F6.7°C 66% 3.0 mph NE4.8 kmh NE 5.0 mph8.0 kmh 30.22 in1023.4 mb 0.00 in0.0 mm 0.00 in/hr0.0 mm/hr 0.00 in0.0 mm
01:30 PM 54.9°F12.7°C 43.8°F6.6°C 66% 5.0 mph NNE8.0 kmh NNE 5.0 mph8.0 kmh 30.22 in1023.4 mb 0.00 in0.0 mm 0.00 in/hr0.0 mm/hr 0.00 in0.0 mm
01:20 PM 54.4°F12.4°C 43.3°F6.3°C 66% 6.0 mph NNW9.7 kmh NNW 12.0 mph19.3 kmh 30.23 in1023.7 mb 0.00 in0.0 mm 0.00 in/hr0.0 mm/hr 0.00 in0.0 mm
01:10 PM 53.8°F12.1°C 43.1°F6.2°C 67% 3.0 mph N4.8 kmh N 5.0 mph8.0 kmh 30.22 in1023.4 mb 0.00 in0.0 mm 0.00 in/hr0.0 mm/hr 0.00 in0.0 mm
01:00 PM 53.7°F12.1°C 43.7°F6.5°C 69% 7.0 mph NW11.3 kmh NW 10.0 mph16.1 kmh 30.23 in1023.7 mb 0.00 in0.0 mm 0.00 in/hr0.0 mm/hr 0.00 in0.0 mm
12:50 PM 52.9°F11.6°C 43.0°F6.1°C 69% 3.0 mph NE4.8 kmh NE 7.0 mph11.3 kmh 30.23 in1023.7 mb 0.00 in0.0 mm 0.00 in/hr0.0 mm/hr 0.00 in0.0 mm
12:40 PM 52.3°F11.3°C 42.8°F6.0°C 70% 5.0 mph ENE8.0 kmh ENE 7.0 mph11.3 kmh 30.24 in1024.0 mb 0.00 in0.0 mm 0.00 in/hr0.0 mm/hr 0.00 in0.0 mm
12:30 PM 51.7°F10.9°C 42.6°F5.9°C 71% 5.0 mph NE8.0 kmh NE 12.0 mph19.3 kmh 30.25 in1024.4 mb 0.00 in0.0 mm 0.00 in/hr0.0 mm/hr 0.00 in0.0 mm
12:20 PM 51.4°F10.8°C 41.9°F5.5°C 70% 6.0 mph N9.7 kmh N 10.0 mph16.1 kmh 30.25 in1024.4 mb 0.00 in0.0 mm 0.00 in/hr0.0 mm/hr 0.00 in0.0 mm
12:10 PM 50.3°F10.2°C 41.7°F5.4°C 72% 5.0 mph NE8.0 kmh NE 8.0 mph12.9 kmh 30.25 in1024.4 mb 0.00 in0.0 mm 0.00 in/hr0.0 mm/hr 0.00 in0.0 mm
12:00 PM 50.2°F10.1°C 41.2°F5.1°C 71% 5.0 mph NE8.0 kmh NE 12.0 mph19.3 kmh 30.25 in1024.4 mb 0.00 in0.0 mm 0.00 in/hr0.0 mm/hr 0.00 in0.0 mm
11:50 AM 49.9°F9.9°C 41.6°F5.3°C 73% 5.0 mph E8.0 kmh E 12.0 mph19.3 kmh 30.25 in1024.4 mb 0.00 in0.0 mm 0.00 in/hr0.0 mm/hr 0.00 in0.0 mm
11:40 AM 48.7°F9.3°C 40.7°F4.8°C 74% 3.0 mph NE4.8 kmh NE 7.0 mph11.3 kmh 30.25 in1024.4 mb 0.00 in0.0 mm 0.00 in/hr0.0 mm/hr 0.00 in0.0 mm
11:30 AM 47.6°F8.7°C 40.0°F4.4°C 75% 1.0 mph NE1.6 kmh NE 6.0 mph9.7 kmh 30.25 in1024.4 mb 0.00 in0.0 mm 0.00 in/hr0.0 mm/hr 0.00 in0.0 mm
11:20 AM 46.9°F8.3°C 39.4°F4.1°C 75% 2.0 mph N3.2 kmh N 5.0 mph8.0 kmh 30.25 in1024.4 mb 0.00 in0.0 mm 0.00 in/hr0.0 mm/hr 0.00 in0.0 mm
11:10 AM 46.4°F8.0°C 38.9°F3.8°C 75% 3.0 mph NE4.8 kmh NE 6.0 mph9.7 kmh 30.25 in1024.4 mb 0.00 in0.0 mm 0.00 in/hr0.0 mm/hr 0.00 in0.0 mm
11:00 AM 46.2°F7.9°C 39.1°F3.9°C 76% 1.0 mph NE1.6 kmh NE 6.0 mph9.7 kmh 30.25 in1024.4 mb 0.00 in0.0 mm 0.00 in/hr0.0 mm/hr 0.00 in0.0 mm
10:50 AM 45.8°F7.7°C 39.0°F3.9°C 77% 1.0 mph N1.6 kmh N -- 30.25 in1024.4 mb 0.00 in0.0 mm 0.00 in/hr0.0 mm/hr 0.00 in0.0 mm
10:40 AM 45.1°F7.3°C 38.6°F3.7°C 78% 5.0 mph NE8.0 kmh NE 8.0 mph12.9 kmh 30.26 in1024.7 mb 0.00 in0.0 mm 0.00 in/hr0.0 mm/hr 0.00 in0.0 mm
10:30 AM 43.9°F6.6°C 37.8°F3.2°C 79% 1.0 mph NE1.6 kmh NE 3.0 mph4.8 kmh 30.26 in1024.7 mb 0.00 in0.0 mm 0.00 in/hr0.0 mm/hr 0.00 in0.0 mm
10:20 AM 43.3°F6.3°C 37.2°F2.9°C 79% 2.0 mph NNE3.2 kmh NNE 3.0 mph4.8 kmh 30.26 in1024.7 mb 0.00 in0.0 mm 0.00 in/hr0.0 mm/hr 0.00 in0.0 mm
10:10 AM 43.0°F6.1°C 36.9°F2.7°C 79% Calm Calm 2.0 mph3.2 kmh 30.26 in1024.7 mb 0.00 in0.0 mm 0.00 in/hr0.0 mm/hr 0.00 in0.0 mm
10:00 AM 42.6°F5.9°C 36.9°F2.7°C 80% 2.0 mph NNE3.2 kmh NNE 5.0 mph8.0 kmh 30.26 in1024.7 mb 0.00 in0.0 mm 0.00 in/hr0.0 mm/hr 0.00 in0.0 mm
09:50 AM 42.2°F5.7°C 36.5°F2.5°C 80% Calm Calm -- 30.25 in1024.4 mb 0.00 in0.0 mm 0.00 in/hr0.0 mm/hr 0.00 in0.0 mm
09:40 AM 42.0°F5.6°C 36.2°F2.3°C 80% 1.0 mph N1.6 kmh N 2.0 mph3.2 kmh 30.25 in1024.4 mb 0.00 in0.0 mm 0.00 in/hr0.0 mm/hr 0.00 in0.0 mm
09:30 AM 41.7°F5.4°C 36.3°F2.4°C 81% Calm Calm 3.0 mph4.8 kmh 30.25 in1024.4 mb 0.00 in0.0 mm 0.00 in/hr0.0 mm/hr 0.00 in0.0 mm
09:20 AM 41.5°F5.3°C 36.1°F2.3°C 81% Calm Calm 3.0 mph4.8 kmh 30.24 in1024.0 mb 0.00 in0.0 mm 0.00 in/hr0.0 mm/hr 0.00 in0.0 mm
09:10 AM 41.3°F5.2°C 35.9°F2.2°C 81% 1.0 mph NNE1.6 kmh NNE 2.0 mph3.2 kmh 30.24 in1024.0 mb 0.00 in0.0 mm 0.00 in/hr0.0 mm/hr 0.00 in0.0 mm
09:00 AM 41.0°F5.0°C 35.9°F2.2°C 82% 5.0 mph NNW8.0 kmh NNW 10.0 mph16.1 kmh 30.24 in1024.0 mb 0.00 in0.0 mm 0.00 in/hr0.0 mm/hr 0.00 in0.0 mm
08:50 AM 40.6°F4.8°C 35.5°F1.9°C 82% 7.0 mph N11.3 kmh N 10.0 mph16.1 kmh 30.23 in1023.7 mb 0.00 in0.0 mm 0.00 in/hr0.0 mm/hr 0.00 in0.0 mm
08:40 AM 40.0°F4.4°C 35.5°F1.9°C 84% 6.0 mph NE9.7 kmh NE 15.0 mph24.1 kmh 30.23 in1023.7 mb 0.00 in0.0 mm 0.00 in/hr0.0 mm/hr 0.00 in0.0 mm
08:30 AM 39.6°F4.2°C 35.2°F1.8°C 84% 5.0 mph NNE8.0 kmh NNE 7.0 mph11.3 kmh 30.23 in1023.7 mb 0.00 in0.0 mm 0.00 in/hr0.0 mm/hr 0.00 in0.0 mm
08:20 AM 39.3°F4.1°C 34.9°F1.6°C 84% 3.0 mph NE4.8 kmh NE 8.0 mph12.9 kmh 30.23 in1023.7 mb 0.00 in0.0 mm 0.00 in/hr0.0 mm/hr 0.00 in0.0 mm
08:10 AM 39.1°F3.9°C 35.0°F1.7°C 85% 3.0 mph N4.8 kmh N 9.0 mph14.5 kmh 30.22 in1023.4 mb 0.00 in0.0 mm 0.00 in/hr0.0 mm/hr 0.00 in0.0 mm
08:00 AM 38.9°F3.8°C 34.8°F1.6°C 85% 1.0 mph NE1.6 kmh NE 3.0 mph4.8 kmh 30.22 in1023.4 mb 0.00 in0.0 mm 0.00 in/hr0.0 mm/hr 0.00 in0.0 mm
07:50 AM 38.8°F3.8°C 34.7°F1.5°C 85% 2.0 mph NNW3.2 kmh NNW 2.0 mph3.2 kmh 30.22 in1023.4 mb 0.00 in0.0 mm 0.00 in/hr0.0 mm/hr 0.00 in0.0 mm
07:40 AM 38.7°F3.7°C 34.9°F1.6°C 86% 2.0 mph N3.2 kmh N 3.0 mph4.8 kmh 30.22 in1023.4 mb 0.00 in0.0 mm 0.00 in/hr0.0 mm/hr 0.00 in0.0 mm
07:30 AM 38.7°F3.7°C 34.9°F1.6°C 86% 1.0 mph N1.6 kmh N 5.0 mph8.0 kmh 30.22 in1023.4 mb 0.00 in0.0 mm 0.00 in/hr0.0 mm/hr 0.00 in0.0 mm
07:20 AM 38.7°F3.7°C 34.9°F1.6°C 86% 2.0 mph N3.2 kmh N 6.0 mph9.7 kmh 30.21 in1023.0 mb 0.00 in0.0 mm 0.00 in/hr0.0 mm/hr 0.00 in0.0 mm
07:10 AM 38.6°F3.7°C 34.8°F1.6°C 86% 2.0 mph N3.2 kmh N 7.0 mph11.3 kmh 30.21 in1023.0 mb 0.00 in0.0 mm 0.00 in/hr0.0 mm/hr 0.00 in0.0 mm
07:00 AM 38.7°F3.7°C 34.9°F1.6°C 86% 1.0 mph N1.6 kmh N 7.0 mph11.3 kmh 30.21 in1023.0 mb 0.00 in0.0 mm 0.00 in/hr0.0 mm/hr 0.00 in0.0 mm
06:50 AM 38.7°F3.7°C 34.9°F1.6°C 86% 1.0 mph N1.6 kmh N 5.0 mph8.0 kmh 30.21 in1023.0 mb 0.00 in0.0 mm 0.00 in/hr0.0 mm/hr 0.00 in0.0 mm
06:40 AM 38.7°F3.7°C 34.9°F1.6°C 86% 2.0 mph N3.2 kmh N 5.0 mph8.0 kmh 30.20 in1022.7 mb 0.00 in0.0 mm 0.00 in/hr0.0 mm/hr 0.00 in0.0 mm
06:30 AM 38.7°F3.7°C 34.9°F1.6°C 86% 2.0 mph N3.2 kmh N 3.0 mph4.8 kmh 30.20 in1022.7 mb 0.00 in0.0 mm 0.00 in/hr0.0 mm/hr 0.00 in0.0 mm
06:20 AM 38.5°F3.6°C 34.7°F1.5°C 86% 2.0 mph N3.2 kmh N 5.0 mph8.0 kmh 30.20 in1022.7 mb 0.00 in0.0 mm 0.00 in/hr0.0 mm/hr 0.00 in0.0 mm
06:10 AM 38.4°F3.6°C 34.9°F1.6°C 87% 3.0 mph NNW4.8 kmh NNW 6.0 mph9.7 kmh 30.20 in1022.7 mb 0.00 in0.0 mm 0.00 in/hr0.0 mm/hr 0.00 in0.0 mm
06:00 AM 38.3°F3.5°C 34.8°F1.6°C 87% 2.0 mph NNW3.2 kmh NNW 6.0 mph9.7 kmh 30.20 in1022.7 mb 0.00 in0.0 mm 0.00 in/hr0.0 mm/hr 0.00 in0.0 mm
05:50 AM 38.3°F3.5°C 34.8°F1.6°C 87% Calm Calm -- 30.19 in1022.4 mb 0.00 in0.0 mm 0.00 in/hr0.0 mm/hr 0.00 in0.0 mm
05:40 AM 38.2°F3.4°C 34.7°F1.5°C 87% 1.0 mph NNW1.6 kmh NNW 5.0 mph8.0 kmh 30.19 in1022.4 mb 0.00 in0.0 mm 0.00 in/hr0.0 mm/hr 0.00 in0.0 mm
05:30 AM 38.2°F3.4°C 34.7°F1.5°C 87% 1.0 mph N1.6 kmh N -- 30.18 in1022.0 mb 0.00 in0.0 mm 0.00 in/hr0.0 mm/hr 0.00 in0.0 mm
05:20 AM 38.2°F3.4°C 34.7°F1.5°C 87% 1.0 mph NNW1.6 kmh NNW 2.0 mph3.2 kmh 30.19 in1022.4 mb 0.00 in0.0 mm 0.00 in/hr0.0 mm/hr 0.00 in0.0 mm
05:10 AM 38.3°F3.5°C 34.5°F1.4°C 86% 1.0 mph NNW1.6 kmh NNW 6.0 mph9.7 kmh 30.19 in1022.4 mb 0.00 in0.0 mm 0.00 in/hr0.0 mm/hr 0.00 in0.0 mm
05:00 AM 38.5°F3.6°C 34.7°F1.5°C 86% 1.0 mph NNW1.6 kmh NNW 5.0 mph8.0 kmh 30.19 in1022.4 mb 0.00 in0.0 mm 0.00 in/hr0.0 mm/hr 0.00 in0.0 mm
04:50 AM 38.7°F3.7°C 34.9°F1.6°C 86% 1.0 mph N1.6 kmh N 8.0 mph12.9 kmh 30.18 in1022.0 mb 0.00 in0.0 mm 0.00 in/hr0.0 mm/hr 0.00 in0.0 mm
04:40 AM 38.7°F3.7°C 34.9°F1.6°C 86% 1.0 mph N1.6 kmh N 5.0 mph8.0 kmh 30.18 in1022.0 mb 0.00 in0.0 mm 0.00 in/hr0.0 mm/hr 0.00 in0.0 mm
04:30 AM 38.8°F3.8°C 35.0°F1.7°C 86% 2.0 mph NNW3.2 kmh NNW 6.0 mph9.7 kmh 30.18 in1022.0 mb 0.00 in0.0 mm 0.00 in/hr0.0 mm/hr 0.00 in0.0 mm
04:20 AM 38.9°F3.8°C 35.1°F1.7°C 86% 1.0 mph N1.6 kmh N 5.0 mph8.0 kmh 30.17 in1021.7 mb 0.00 in0.0 mm 0.00 in/hr0.0 mm/hr 0.00 in0.0 mm
04:10 AM 39.0°F3.9°C 34.9°F1.6°C 85% Calm Calm -- 30.17 in1021.7 mb 0.00 in0.0 mm 0.00 in/hr0.0 mm/hr 0.00 in0.0 mm
04:00 AM 39.2°F4.0°C 35.1°F1.7°C 85% Calm Calm -- 30.17 in1021.7 mb 0.00 in0.0 mm 0.00 in/hr0.0 mm/hr 0.00 in0.0 mm
03:50 AM 39.4°F4.1°C 35.3°F1.8°C 85% 1.0 mph NNW1.6 kmh NNW 6.0 mph9.7 kmh 30.17 in1021.7 mb 0.00 in0.0 mm 0.00 in/hr0.0 mm/hr 0.00 in0.0 mm
03:40 AM 39.7°F4.3°C 35.5°F1.9°C 85% Calm Calm 3.0 mph4.8 kmh 30.17 in1021.7 mb 0.00 in0.0 mm 0.00 in/hr0.0 mm/hr 0.00 in0.0 mm
03:30 AM 39.9°F4.4°C 35.5°F1.9°C 84% Calm Calm -- 30.17 in1021.7 mb 0.00 in0.0 mm 0.00 in/hr0.0 mm/hr 0.00 in0.0 mm
03:20 AM 40.2°F4.6°C 35.8°F2.1°C 84% Calm Calm -- 30.16 in1021.3 mb 0.00 in0.0 mm 0.00 in/hr0.0 mm/hr 0.00 in0.0 mm
03:10 AM 40.4°F4.7°C 35.7°F2.1°C 83% 1.0 mph NNW1.6 kmh NNW -- 30.16 in1021.3 mb 0.00 in0.0 mm 0.00 in/hr0.0 mm/hr 0.00 in0.0 mm
03:00 AM 40.7°F4.8°C 36.0°F2.2°C 83% 1.0 mph N1.6 kmh N 5.0 mph8.0 kmh 30.17 in1021.7 mb 0.00 in0.0 mm 0.00 in/hr0.0 mm/hr 0.00 in0.0 mm
02:50 AM 41.0°F5.0°C 36.2°F2.3°C 83% Calm Calm 3.0 mph4.8 kmh 30.16 in1021.3 mb 0.00 in0.0 mm 0.00 in/hr0.0 mm/hr 0.00 in0.0 mm
02:40 AM 41.2°F5.1°C 36.4°F2.4°C 83% Calm Calm -- 30.16 in1021.3 mb 0.00 in0.0 mm 0.00 in/hr0.0 mm/hr 0.00 in0.0 mm
02:30 AM 41.5°F5.3°C 36.7°F2.6°C 83% Calm Calm -- 30.16 in1021.3 mb 0.00 in0.0 mm 0.00 in/hr0.0 mm/hr 0.00 in0.0 mm
02:20 AM 41.7°F5.4°C 36.9°F2.7°C 83% Calm Calm -- 30.15 in1021.0 mb 0.00 in0.0 mm 0.00 in/hr0.0 mm/hr 0.00 in0.0 mm
02:10 AM 41.9°F5.5°C 37.1°F2.8°C 83% 3.0 mph NE4.8 kmh NE 6.0 mph9.7 kmh 30.15 in1021.0 mb 0.00 in0.0 mm 0.00 in/hr0.0 mm/hr 0.00 in0.0 mm
02:00 AM 42.0°F5.6°C 37.5°F3.1°C 84% Calm Calm 2.0 mph3.2 kmh 30.15 in1021.0 mb 0.00 in0.0 mm 0.00 in/hr0.0 mm/hr 0.00 in0.0 mm
01:50 AM 42.2°F5.7°C 37.7°F3.2°C 84% 5.0 mph N8.0 kmh N 8.0 mph12.9 kmh 30.15 in1021.0 mb 0.00 in0.0 mm 0.00 in/hr0.0 mm/hr 0.00 in0.0 mm
01:40 AM 42.5°F5.8°C 38.0°F3.3°C 84% 2.0 mph NNW3.2 kmh NNW 7.0 mph11.3 kmh 30.14 in1020.7 mb 0.00 in0.0 mm 0.00 in/hr0.0 mm/hr 0.00 in0.0 mm
01:30 AM 42.7°F5.9°C 38.2°F3.4°C 84% 2.0 mph N3.2 kmh N 7.0 mph11.3 kmh 30.14 in1020.7 mb 0.00 in0.0 mm 0.00 in/hr0.0 mm/hr 0.00 in0.0 mm
01:20 AM 42.9°F6.1°C 38.4°F3.6°C 84% 3.0 mph N4.8 kmh N 6.0 mph9.7 kmh 30.14 in1020.7 mb 0.00 in0.0 mm 0.00 in/hr0.0 mm/hr 0.00 in0.0 mm
01:10 AM 43.0°F6.1°C 38.5°F3.6°C 84% 2.0 mph NNW3.2 kmh NNW 5.0 mph8.0 kmh 30.14 in1020.7 mb 0.00 in0.0 mm 0.00 in/hr0.0 mm/hr 0.00 in0.0 mm
01:00 AM 43.1°F6.2°C 38.6°F3.7°C 84% 2.0 mph NNE3.2 kmh NNE 5.0 mph8.0 kmh 30.14 in1020.7 mb 0.00 in0.0 mm 0.00 in/hr0.0 mm/hr 0.00 in0.0 mm
12:50 AM 43.1°F6.2°C 38.6°F3.7°C 84% 3.0 mph NNW4.8 kmh NNW 5.0 mph8.0 kmh 30.14 in1020.7 mb 0.00 in0.0 mm 0.00 in/hr0.0 mm/hr 0.00 in0.0 mm
12:40 AM 43.1°F6.2°C 38.9°F3.8°C 85% 2.0 mph N3.2 kmh N 6.0 mph9.7 kmh 30.14 in1020.7 mb 0.00 in0.0 mm 0.00 in/hr0.0 mm/hr 0.00 in0.0 mm
12:30 AM 43.2°F6.2°C 39.0°F3.9°C 85% 3.0 mph N4.8 kmh N 6.0 mph9.7 kmh 30.14 in1020.7 mb 0.00 in0.0 mm 0.00 in/hr0.0 mm/hr 0.00 in0.0 mm
12:20 AM 43.2°F6.2°C 39.6°F4.2°C 87% 1.0 mph NNE1.6 kmh NNE 5.0 mph8.0 kmh 30.14 in1020.7 mb 0.00 in0.0 mm 0.00 in/hr0.0 mm/hr 0.00 in0.0 mm
12:10 AM 43.3°F6.3°C 39.1°F3.9°C 85% 2.0 mph NNE3.2 kmh NNE 5.0 mph8.0 kmh 30.14 in1020.7 mb 0.00 in0.0 mm 0.00 in/hr0.0 mm/hr 0.00 in0.0 mm
12:00 AM 43.2°F6.2°C 39.0°F3.9°C 85% 5.0 mph NE8.0 kmh NE 9.0 mph14.5 kmh 30.14 in1020.7 mb 0.00 in0.0 mm 0.00 in/hr0.0 mm/hr 0.00 in0.0 mm